首页
METAR-TAF:

METAR-TAF

机场 :

Charlotte County Airport

Punta Gorda, 佛罗里达州, 美国

纬度: 26-55-04N, 经度: 081-59-37W, 海拔: 7米

当前天气观测

该预报发布于35分钟前的19:53 UTC
风速7节,风向西转西南
温度 29°C
湿度 62%
气压 1020 hPa
能見度: 16.1公里
天空无云

METAR: KPGD 191953Z 25007KT 10SM CLR 29/21 A3013 RMK AO2 SLP202 T02890206

时间: 15:28 (20:28 UTC)

预报

该预报发布于2小时和49分钟前的17:39 UTC
预报有效从19日的 18点(UTC)到 20日的 18点(UTC)
风速6节,风向西
能見度: 10公里
少量云层高于2500英尺
多云层高于3500英尺
从 20日的 0000点(UTC)
风速4节,风向多变
能見度: 10公里
少量云层高于2000英尺
多云层高于4000英尺
从 20日的 0900点(UTC)
风速3节,风向多变
能見度: 6.4公里
散云层高于1000英尺
多云层高于2500英尺
轻雾
从 20日的 1400点(UTC)
风速6节,风向南转南东
能見度: 10公里
散云层高于2500英尺
多云层高于25000英尺

TAF: KPGD 191739Z 1918/2018 28006KT P6SM FEW025 BKN035 FM200000 VRB04KT P6SM FEW020 BKN040 FM200900 VRB03KT 4SM BR SCT010 BKN025 FM201400 16006KT P6SM SCT025 BKN250

超过4000个机场的气象观测和天气预报(METAR&TAF报告)。

可查询的气象台以黄色和红色小点在地图上表示。

将鼠标移到小点上方,可查看气象台名称。

然后点击查看天气观测和预报。

如需切换地图:点击带黑十字的绿色按钮放大地图;点击带横线的绿色按钮缩小地图;或者点击绿色箭头查看邻近地区的地图。


METAR-TAF: